createdAt,value
2017-12-20T00:00:52.175Z,48.13
2017-12-20T00:03:19.645Z,48.67
2017-12-20T00:05:47.166Z,45.25
2017-12-20T00:08:14.654Z,49.95
2017-12-20T00:10:42.174Z,48.83
2017-12-20T00:13:09.762Z,50.75
2017-12-20T00:15:37.348Z,47.80
2017-12-20T00:18:04.922Z,44.97
2017-12-20T00:20:32.430Z,50.12
2017-12-20T00:23:00.016Z,49.13
2017-12-20T00:25:27.522Z,46.55
2017-12-20T00:27:55.846Z,47.33
2017-12-20T00:30:23.402Z,43.22
2017-12-20T00:32:50.954Z,43.25
2017-12-20T00:35:18.471Z,51.30
2017-12-20T00:37:45.946Z,44.20
2017-12-20T00:40:14.262Z,46.45
2017-12-20T00:42:41.787Z,45.88
2017-12-20T00:48:12.369Z,43.87
2017-12-20T00:50:39.882Z,44.25
2017-12-20T00:53:08.169Z,46.25
2017-12-20T00:55:35.781Z,46.92
2017-12-20T00:58:03.271Z,47.17
2017-12-20T01:00:30.786Z,48.20
2017-12-20T01:02:58.277Z,44.30
2017-12-20T01:05:25.817Z,41.80
2017-12-20T01:07:53.397Z,47.20
2017-12-20T01:10:20.922Z,41.28
2017-12-20T01:12:48.409Z,43.92
2017-12-20T01:15:15.938Z,49.10
2017-12-20T01:17:43.467Z,53.28
2017-12-20T01:20:11.011Z,45.17
2017-12-20T01:22:39.278Z,47.00
2017-12-20T01:25:06.765Z,47.17
2017-12-20T01:27:53.621Z,43.28
2017-12-20T01:30:21.202Z,48.25
2017-12-20T01:32:48.730Z,48.15
2017-12-20T01:35:31.007Z,44.38
2017-12-20T01:37:58.598Z,47.97
2017-12-20T01:40:26.186Z,43.65
2017-12-20T01:42:53.719Z,47.08
2017-12-20T01:45:21.265Z,45.33
2017-12-20T01:47:48.838Z,40.45
2017-12-20T01:50:16.411Z,44.25
2017-12-20T01:52:43.985Z,49.03
2017-12-20T01:55:12.290Z,46.45
2017-12-20T01:57:39.854Z,47.30
2017-12-20T02:00:07.772Z,41.75
2017-12-20T02:02:35.339Z,42.28
2017-12-20T02:05:08.674Z,42.25
2017-12-20T02:07:36.167Z,46.92
2017-12-20T02:10:03.681Z,43.95
2017-12-20T02:12:31.943Z,40.90
2017-12-20T02:14:59.487Z,41.20
2017-12-20T02:17:27.018Z,42.03
2017-12-20T02:19:54.574Z,41.17
2017-12-20T02:22:22.087Z,38.60
2017-12-20T02:24:49.678Z,38.53
2017-12-20T02:27:17.969Z,41.55
2017-12-20T02:29:45.492Z,41.25
2017-12-20T02:32:13.008Z,38.72
2017-12-20T02:34:40.528Z,37.90
2017-12-20T02:37:08.050Z,36.17
2017-12-20T02:39:36.344Z,37.42
2017-12-20T02:42:08.689Z,38.55
2017-12-20T02:44:36.229Z,37.33
2017-12-20T02:47:03.761Z,36.58
2017-12-20T02:49:31.319Z,38.60
2017-12-20T02:51:58.862Z,39.63
2017-12-20T02:54:26.428Z,40.20
2017-12-20T02:56:53.971Z,38.67
2017-12-20T02:59:21.502Z,36.50
2017-12-20T03:01:49.072Z,37.25
2017-12-20T03:04:17.371Z,40.80
2017-12-20T03:06:44.904Z,34.58
2017-12-20T03:09:12.478Z,38.50
2017-12-20T03:11:40.830Z,38.30
2017-12-20T03:14:08.330Z,37.03
2017-12-20T03:16:35.889Z,40.40
2017-12-20T03:19:03.378Z,41.42
2017-12-20T03:21:30.874Z,40.78
2017-12-20T03:23:58.385Z,36.47
2017-12-20T03:26:25.912Z,38.92
2017-12-20T03:28:53.463Z,38.00
2017-12-20T03:31:21.783Z,36.97
2017-12-20T03:33:49.298Z,36.13
2017-12-20T03:36:37.446Z,38.55
2017-12-20T03:39:05.769Z,41.83
2017-12-20T03:41:33.355Z,39.38
2017-12-20T03:44:00.953Z,40.85
2017-12-20T03:46:28.502Z,45.70
2017-12-20T03:48:56.053Z,47.53
2017-12-20T03:51:24.377Z,43.35
2017-12-20T03:53:51.894Z,45.67
2017-12-20T03:56:20.210Z,48.15
2017-12-20T03:58:47.735Z,48.65
2017-12-20T04:01:16.060Z,44.25
2017-12-20T04:03:43.528Z,44.95
2017-12-20T04:06:11.058Z,41.83
2017-12-20T04:08:38.610Z,40.30
2017-12-20T04:11:06.162Z,44.08
2017-12-20T04:13:33.702Z,43.30
2017-12-20T04:16:01.981Z,42.53
2017-12-20T04:18:30.263Z,38.80
2017-12-20T04:21:03.547Z,42.45
2017-12-20T04:23:31.882Z,45.17
2017-12-20T04:25:59.461Z,45.95
2017-12-20T04:28:27.019Z,54.15
2017-12-20T04:30:54.574Z,42.40
2017-12-20T04:33:22.164Z,42.70
2017-12-20T04:35:50.441Z,42.08
2017-12-20T04:38:17.977Z,44.15
2017-12-20T04:40:45.521Z,38.95
2017-12-20T04:43:13.098Z,37.88
2017-12-20T04:45:40.712Z,37.80
2017-12-20T04:48:08.160Z,51.63
2017-12-20T04:50:35.675Z,36.88
2017-12-20T04:53:03.178Z,37.80
2017-12-20T04:55:36.778Z,40.17
2017-12-20T04:58:04.367Z,39.88
2017-12-20T05:00:31.962Z,36.95
2017-12-20T05:03:00.302Z,42.72
2017-12-20T05:05:27.856Z,42.15
2017-12-20T05:07:55.451Z,44.35
2017-12-20T05:10:23.019Z,44.03
2017-12-20T05:12:50.582Z,38.75
2017-12-20T05:15:18.949Z,42.67
2017-12-20T05:17:46.481Z,42.92
2017-12-20T05:20:14.023Z,41.90
2017-12-20T05:22:41.578Z,46.83
2017-12-20T05:25:09.103Z,39.28
2017-12-20T05:27:37.367Z,44.95
2017-12-20T05:30:05.655Z,30.92
2017-12-20T05:32:40.154Z,46.37
2017-12-20T05:35:07.636Z,41.13
2017-12-20T05:37:35.919Z,41.03
2017-12-20T05:40:03.468Z,43.17
2017-12-20T05:42:31.714Z,44.60
2017-12-20T05:44:59.201Z,38.67
2017-12-20T05:47:26.714Z,36.55
2017-12-20T05:49:54.234Z,37.40
2017-12-20T05:52:21.749Z,30.40
2017-12-20T05:54:49.244Z,36.20
2017-12-20T05:57:19.430Z,28.55
2017-12-20T05:59:46.927Z,37.35
2017-12-20T06:02:14.466Z,33.47
2017-12-20T06:04:41.938Z,38.33
2017-12-20T06:07:09.496Z,33.50
2017-12-20T06:09:37.059Z,33.95
2017-12-20T06:12:05.318Z,31.98
2017-12-20T06:14:32.826Z,35.13
2017-12-20T06:17:21.932Z,37.55
2017-12-20T06:19:49.484Z,30.48
2017-12-20T06:22:16.976Z,36.47
2017-12-20T06:24:45.239Z,34.65
2017-12-20T06:27:12.748Z,34.15
2017-12-20T06:29:40.278Z,31.90
2017-12-20T06:32:07.791Z,37.13
2017-12-20T06:34:35.305Z,38.42
2017-12-20T06:37:02.829Z,43.83
2017-12-20T06:39:30.334Z,37.38
2017-12-20T06:41:57.863Z,37.28
2017-12-20T06:44:26.152Z,40.20
2017-12-20T06:46:53.658Z,37.28
2017-12-20T06:49:21.143Z,41.55
2017-12-20T06:51:48.634Z,47.00
2017-12-20T06:54:16.175Z,39.75
2017-12-20T06:56:43.703Z,46.20
2017-12-20T06:59:11.244Z,40.22
2017-12-20T07:01:38.763Z,46.72
2017-12-20T07:04:06.284Z,39.88
2017-12-20T07:06:38.078Z,39.17
2017-12-20T07:09:15.529Z,29.25
2017-12-20T07:11:43.049Z,42.75
2017-12-20T07:14:10.547Z,47.55
2017-12-20T07:16:38.077Z,46.42
2017-12-20T07:19:05.614Z,55.95
2017-12-20T07:21:33.105Z,42.83
2017-12-20T07:24:00.589Z,42.62
2017-12-20T07:26:28.159Z,44.28
2017-12-20T07:28:56.376Z,51.92
2017-12-20T07:31:23.890Z,56.08
2017-12-20T07:33:52.151Z,34.90
2017-12-20T07:36:19.630Z,51.92
2017-12-20T07:38:47.147Z,45.53
2017-12-20T07:41:14.702Z,52.88
2017-12-20T07:43:42.300Z,49.38
2017-12-20T07:46:09.823Z,46.67
2017-12-20T07:48:37.333Z,45.90
2017-12-20T07:51:05.587Z,41.08
2017-12-20T07:53:33.096Z,41.28
2017-12-20T07:56:00.757Z,42.45
2017-12-20T07:58:28.269Z,44.67
2017-12-20T08:00:55.779Z,39.92
2017-12-20T08:03:25.064Z,44.30
2017-12-20T08:05:56.344Z,38.60
2017-12-20T08:08:23.862Z,43.33
2017-12-20T08:10:51.365Z,41.78
2017-12-20T08:13:18.920Z,44.55
2017-12-20T08:18:39.673Z,37.17
2017-12-20T08:21:07.196Z,37.88
2017-12-20T08:23:34.695Z,32.28
2017-12-20T08:26:02.203Z,31.55
2017-12-20T08:28:29.727Z,28.08
2017-12-20T08:30:57.994Z,26.87
2017-12-20T08:33:25.498Z,29.63
2017-12-20T08:35:53.008Z,28.00
2017-12-20T08:38:21.277Z,32.13
2017-12-20T08:40:49.559Z,25.85
2017-12-20T08:43:17.850Z,26.42
2017-12-20T08:45:51.890Z,30.33
2017-12-20T08:48:19.408Z,26.75
2017-12-20T08:50:47.646Z,30.70
2017-12-20T08:53:15.212Z,29.27
2017-12-20T08:55:42.816Z,29.05
2017-12-20T08:58:10.305Z,30.95
2017-12-20T09:00:37.831Z,30.70
2017-12-20T09:03:05.311Z,34.08
2017-12-20T09:05:32.815Z,30.52
2017-12-20T09:08:00.301Z,31.90
2017-12-20T09:10:28.569Z,32.20
2017-12-20T09:12:56.847Z,32.38
2017-12-20T09:15:25.102Z,30.20
2017-12-20T09:17:52.590Z,30.23
2017-12-20T09:20:20.900Z,30.15
2017-12-20T09:22:48.418Z,32.58
2017-12-20T09:25:16.665Z,33.85
2017-12-20T09:27:44.191Z,30.12
2017-12-20T09:30:11.698Z,33.75
2017-12-20T09:32:39.217Z,32.15
2017-12-20T09:35:23.577Z,32.90
2017-12-20T09:37:51.078Z,30.60
2017-12-20T09:40:18.570Z,35.13
2017-12-20T09:42:46.114Z,31.37
2017-12-20T09:45:13.674Z,32.72
2017-12-20T09:47:41.167Z,31.65
2017-12-20T09:50:18.598Z,36.10
2017-12-20T09:52:57.026Z,36.60
2017-12-20T09:55:25.309Z,38.58
2017-12-20T09:57:53.594Z,34.83
2017-12-20T10:00:29.448Z,38.70
2017-12-20T10:02:56.953Z,36.17
2017-12-20T10:05:24.441Z,42.00
2017-12-20T10:07:51.927Z,34.47
2017-12-20T10:10:19.470Z,33.67
2017-12-20T10:12:47.739Z,32.67
2017-12-20T10:15:15.266Z,29.00
2017-12-20T10:17:43.089Z,30.12
2017-12-20T10:20:10.558Z,32.80
2017-12-20T10:22:38.060Z,27.60
2017-12-20T10:25:05.614Z,27.80
2017-12-20T10:27:33.129Z,29.58
2017-12-20T10:30:00.609Z,30.58
2017-12-20T10:32:28.122Z,27.92
2017-12-20T10:34:56.406Z,26.95
2017-12-20T10:37:23.874Z,29.23
2017-12-20T10:39:51.375Z,27.27
2017-12-20T10:42:18.923Z,30.50
2017-12-20T10:44:46.434Z,32.60
2017-12-20T10:47:26.571Z,30.40
2017-12-20T10:49:54.087Z,27.02
2017-12-20T10:52:21.597Z,28.40
2017-12-20T10:54:49.176Z,22.98
2017-12-20T10:57:16.714Z,24.60
2017-12-20T10:59:45.007Z,23.70
2017-12-20T11:02:13.328Z,19.87
2017-12-20T11:04:40.844Z,21.60
2017-12-20T11:07:08.355Z,20.10
2017-12-20T11:09:35.826Z,19.23
2017-12-20T11:12:03.303Z,20.35
2017-12-20T11:14:45.571Z,17.45
2017-12-20T11:17:19.382Z,18.50
2017-12-20T11:19:46.889Z,17.58
2017-12-20T11:22:14.390Z,15.68
2017-12-20T11:24:41.932Z,17.25
2017-12-20T11:27:09.447Z,16.65
2017-12-20T11:29:37.719Z,17.20
2017-12-20T11:32:06.048Z,16.27
2017-12-20T11:34:33.575Z,16.00
2017-12-20T11:37:01.108Z,19.10
2017-12-20T11:39:28.594Z,17.95
2017-12-20T11:41:56.102Z,19.10
2017-12-20T11:44:23.593Z,17.92
2017-12-20T11:46:51.861Z,16.08
2017-12-20T11:49:19.364Z,17.60
2017-12-20T11:51:46.886Z,16.25
2017-12-20T11:54:15.137Z,17.75
2017-12-20T11:56:42.651Z,18.87
2017-12-20T11:59:16.264Z,16.83
2017-12-20T12:01:43.747Z,15.88
2017-12-20T12:04:11.239Z,15.88
2017-12-20T12:06:39.503Z,15.10
2017-12-20T12:09:07.016Z,17.40
2017-12-20T12:11:34.518Z,16.75
2017-12-20T12:14:02.017Z,15.73
2017-12-20T12:16:35.825Z,15.35
2017-12-20T12:19:03.331Z,16.58
2017-12-20T12:21:30.813Z,15.90
2017-12-20T12:23:59.081Z,16.85
2017-12-20T12:26:27.358Z,14.32
2017-12-20T12:29:01.246Z,13.02
2017-12-20T12:31:28.730Z,13.23
2017-12-20T12:33:56.987Z,13.10
2017-12-20T12:36:24.502Z,13.93
2017-12-20T12:38:51.997Z,14.73
2017-12-20T12:47:24.875Z,12.57
2017-12-20T12:49:52.381Z,11.95
2017-12-20T12:52:34.416Z,11.93
2017-12-20T12:55:01.952Z,11.30
2017-12-20T12:57:29.449Z,12.93
2017-12-20T12:59:56.980Z,11.68
2017-12-20T13:02:25.255Z,11.93
2017-12-20T13:04:52.753Z,12.65
2017-12-20T13:07:20.269Z,12.30
2017-12-20T13:09:48.568Z,13.70
2017-12-20T13:12:16.066Z,12.18
2017-12-20T13:14:43.571Z,12.23
2017-12-20T13:17:11.847Z,13.23
2017-12-20T13:19:40.098Z,10.40
2017-12-20T13:22:07.609Z,11.90
2017-12-20T13:24:35.197Z,12.43
2017-12-20T13:27:02.703Z,13.07
2017-12-20T13:29:30.962Z,14.77
2017-12-20T13:31:58.646Z,13.80
2017-12-20T13:34:26.189Z,14.85
2017-12-20T13:36:54.425Z,13.15
2017-12-20T13:39:21.949Z,12.63
2017-12-20T13:41:49.430Z,14.25
2017-12-20T13:44:16.947Z,14.30
2017-12-20T13:46:59.901Z,15.55
2017-12-20T13:49:27.416Z,15.27
2017-12-20T13:51:54.979Z,12.60
2017-12-20T13:54:23.254Z,12.95
2017-12-20T13:56:51.499Z,12.70
2017-12-20T13:59:19.006Z,12.52
2017-12-20T14:01:47.284Z,13.27
2017-12-20T14:04:14.862Z,12.77
2017-12-20T14:06:45.639Z,14.02
2017-12-20T14:09:13.118Z,12.13
2017-12-20T14:11:41.410Z,13.75
2017-12-20T14:14:08.899Z,15.52
2017-12-20T14:16:36.416Z,15.05
2017-12-20T14:19:03.952Z,11.77
2017-12-20T14:21:31.455Z,14.27
2017-12-20T14:23:58.995Z,8.40
2017-12-20T14:26:26.506Z,12.48
2017-12-20T14:28:53.996Z,13.68
2017-12-20T14:31:34.666Z,11.07
2017-12-20T14:34:02.189Z,13.88
2017-12-20T14:36:35.797Z,13.48
2017-12-20T14:39:03.368Z,13.52
2017-12-20T14:41:30.852Z,11.12
2017-12-20T14:43:58.839Z,14.82
2017-12-20T14:46:26.382Z,16.15
2017-12-20T14:48:54.673Z,14.20
2017-12-20T14:51:22.227Z,15.20
2017-12-20T14:53:50.473Z,15.35
2017-12-20T14:56:23.803Z,17.23
2017-12-20T14:58:51.325Z,15.30
2017-12-20T15:01:18.839Z,15.23
2017-12-20T15:03:46.338Z,16.23
2017-12-20T15:06:13.875Z,15.10
2017-12-20T15:08:41.362Z,16.27
2017-12-20T15:11:08.887Z,16.83
2017-12-20T15:13:36.402Z,15.77
2017-12-20T15:16:04.659Z,15.10
2017-12-20T15:18:32.155Z,14.65
2017-12-20T15:20:59.683Z,15.50
2017-12-20T15:23:27.187Z,16.25
2017-12-20T15:25:58.324Z,15.82
2017-12-20T15:28:25.804Z,15.68
2017-12-20T15:30:53.332Z,14.85
2017-12-20T15:33:21.606Z,14.77
2017-12-20T15:35:49.145Z,19.90
2017-12-20T15:38:17.454Z,17.48
2017-12-20T15:40:44.970Z,20.12
2017-12-20T15:43:18.994Z,20.25
2017-12-20T15:45:47.367Z,19.05
2017-12-20T15:48:15.639Z,20.95
2017-12-20T15:50:43.150Z,19.25
2017-12-20T15:53:10.670Z,20.98
2017-12-20T15:55:39.037Z,24.12
2017-12-20T15:58:09.937Z,20.88
2017-12-20T16:00:37.464Z,19.05
2017-12-20T16:03:04.967Z,12.13
2017-12-20T16:05:32.499Z,17.08
2017-12-20T16:08:00.010Z,15.32
2017-12-20T16:10:27.527Z,19.35
2017-12-20T16:13:07.481Z,22.42
2017-12-20T16:15:34.986Z,21.25
2017-12-20T16:18:03.304Z,19.98
2017-12-20T16:20:32.414Z,22.00
2017-12-20T16:22:59.951Z,20.50
2017-12-20T16:25:27.854Z,19.80
2017-12-20T16:28:01.506Z,21.33
2017-12-20T16:30:28.997Z,21.60
2017-12-20T16:32:56.532Z,22.17
2017-12-20T16:35:24.048Z,23.45
2017-12-20T16:37:51.547Z,22.30
2017-12-20T16:40:20.387Z,24.87
2017-12-20T16:42:47.894Z,26.33
2017-12-20T16:45:15.379Z,22.80
2017-12-20T16:47:42.939Z,25.67
2017-12-20T16:50:10.450Z,23.15
2017-12-20T16:52:38.727Z,26.08
2017-12-20T16:55:07.021Z,25.30
2017-12-20T16:57:35.234Z,26.60
2017-12-20T17:00:02.740Z,25.33
2017-12-20T17:02:31.030Z,23.50
2017-12-20T17:05:21.687Z,24.85
2017-12-20T17:07:49.197Z,24.30
2017-12-20T17:10:16.677Z,23.77
2017-12-20T17:12:44.211Z,25.58
2017-12-20T17:15:11.769Z,24.15
2017-12-20T17:17:39.257Z,26.75
2017-12-20T17:20:06.766Z,24.67
2017-12-20T17:22:43.226Z,24.10
2017-12-20T17:25:11.487Z,22.65
2017-12-20T17:27:39.200Z,24.65
2017-12-20T17:30:13.428Z,23.27
2017-12-20T17:32:40.947Z,22.92
2017-12-20T17:35:15.297Z,21.73
2017-12-20T17:37:42.815Z,24.15
2017-12-20T17:40:11.070Z,24.63
2017-12-20T17:42:38.575Z,23.40
2017-12-20T17:45:15.950Z,21.48
2017-12-20T17:47:50.783Z,18.40
2017-12-20T17:50:21.907Z,22.35
2017-12-20T17:52:49.407Z,22.52
2017-12-20T17:55:16.933Z,20.65
2017-12-20T17:57:45.258Z,20.73
2017-12-20T18:00:12.761Z,21.70
2017-12-20T18:02:40.283Z,20.12
2017-12-20T18:05:07.804Z,19.73
2017-12-20T18:07:36.098Z,19.98
2017-12-20T18:10:03.619Z,21.70
2017-12-20T18:12:31.895Z,18.50
2017-12-20T18:15:03.447Z,17.83
2017-12-20T18:17:30.943Z,18.77
2017-12-20T18:19:58.490Z,18.62
2017-12-20T18:22:25.994Z,18.67
2017-12-20T18:24:53.519Z,19.33
2017-12-20T18:27:21.003Z,21.65
2017-12-20T18:29:48.521Z,20.17
2017-12-20T18:32:16.025Z,19.30
2017-12-20T18:34:43.515Z,19.00
2017-12-20T18:37:11.009Z,20.55
2017-12-20T18:39:38.511Z,20.50
2017-12-20T18:42:06.018Z,21.23
2017-12-20T18:44:33.508Z,19.75
2017-12-20T18:47:01.028Z,20.52
2017-12-20T18:49:29.283Z,19.10
2017-12-20T18:51:56.819Z,19.37
2017-12-20T18:54:24.312Z,18.77
2017-12-20T18:56:52.558Z,20.83
2017-12-20T18:59:20.099Z,20.88
2017-12-20T19:01:47.625Z,20.50
2017-12-20T19:04:15.130Z,18.80
2017-12-20T19:06:42.670Z,18.33
2017-12-20T19:09:10.195Z,19.40
2017-12-20T19:11:37.763Z,18.60
2017-12-20T19:14:05.305Z,18.23
2017-12-20T19:16:32.892Z,17.58
2017-12-20T19:19:00.397Z,18.33
2017-12-20T19:21:27.891Z,19.15
2017-12-20T19:23:55.423Z,19.65
2017-12-20T19:26:22.914Z,21.98
2017-12-20T19:28:50.468Z,19.75
2017-12-20T19:31:18.727Z,20.48
2017-12-20T19:33:46.280Z,20.62
2017-12-20T19:36:13.784Z,19.62
2017-12-20T19:38:41.287Z,20.05
2017-12-20T19:41:08.766Z,18.62
2017-12-20T19:43:40.030Z,18.05
2017-12-20T19:46:07.547Z,16.70
2017-12-20T19:48:35.076Z,15.77
2017-12-20T19:51:08.918Z,14.52
2017-12-20T19:53:36.481Z,14.45
2017-12-20T19:56:03.990Z,15.20
2017-12-20T19:58:31.510Z,16.33
2017-12-20T20:00:59.817Z,14.93
2017-12-20T20:03:27.293Z,15.35
2017-12-20T20:06:08.578Z,14.70
2017-12-20T20:08:36.084Z,15.90
2017-12-20T20:11:03.566Z,13.88
2017-12-20T20:13:31.073Z,13.20
2017-12-20T20:15:58.577Z,13.40
2017-12-20T20:18:26.110Z,10.55
2017-12-20T20:20:53.618Z,10.60
2017-12-20T20:23:21.130Z,8.98
2017-12-20T20:25:48.677Z,8.05
2017-12-20T20:28:16.167Z,7.10
2017-12-20T20:30:43.673Z,6.97
2017-12-20T20:33:11.162Z,7.78
2017-12-20T20:35:38.676Z,8.00
2017-12-20T20:38:06.188Z,7.82
2017-12-20T20:40:34.437Z,7.70
2017-12-20T20:43:01.923Z,7.57
2017-12-20T20:45:30.164Z,7.97
2017-12-20T20:47:57.707Z,7.95
2017-12-20T20:50:25.173Z,8.88
2017-12-20T20:52:55.781Z,8.85
2017-12-20T20:55:23.283Z,9.82
2017-12-20T20:57:51.302Z,10.63
2017-12-20T21:00:18.783Z,9.15
2017-12-20T21:02:46.249Z,8.05
2017-12-20T21:05:13.731Z,7.35
2017-12-20T21:07:41.279Z,7.87
2017-12-20T21:10:08.757Z,7.68
2017-12-20T21:12:45.819Z,7.65
2017-12-20T21:15:13.933Z,9.25
2017-12-20T21:17:41.406Z,8.35
2017-12-20T21:20:08.914Z,10.13
2017-12-20T21:22:37.037Z,9.23
2017-12-20T21:25:04.617Z,10.82
2017-12-20T21:27:32.122Z,8.93
2017-12-20T21:30:01.217Z,8.90
2017-12-20T21:32:31.446Z,7.75
2017-12-20T21:35:00.617Z,8.55
2017-12-20T21:37:28.101Z,9.50
2017-12-20T21:39:56.400Z,9.52
2017-12-20T21:42:23.894Z,9.82
2017-12-20T21:44:51.382Z,9.90
2017-12-20T21:47:18.871Z,9.30
2017-12-20T21:49:46.412Z,9.50
2017-12-20T21:52:14.669Z,9.98
2017-12-20T21:54:42.179Z,10.65
2017-12-20T21:57:09.736Z,9.77
2017-12-20T21:59:37.252Z,11.43
2017-12-20T22:02:04.755Z,11.80
2017-12-20T22:04:32.267Z,13.50
2017-12-20T22:06:59.760Z,13.10
2017-12-20T22:09:27.267Z,12.35
2017-12-20T22:11:54.755Z,12.60
2017-12-20T22:14:22.306Z,11.75
2017-12-20T22:16:49.817Z,12.85
2017-12-20T22:19:17.322Z,12.07
2017-12-20T22:21:44.798Z,11.65
2017-12-20T22:24:13.081Z,12.85
2017-12-20T22:26:40.583Z,11.05
2017-12-20T22:29:08.127Z,10.73
2017-12-20T22:31:35.642Z,11.73
2017-12-20T22:34:03.180Z,13.13
2017-12-20T22:36:30.667Z,14.27
2017-12-20T22:38:58.202Z,12.27
2017-12-20T22:41:25.693Z,12.40
2017-12-20T22:43:53.189Z,13.57
2017-12-20T22:46:20.713Z,13.55
2017-12-20T22:48:48.247Z,13.20
2017-12-20T22:51:16.529Z,16.37
2017-12-20T22:53:44.798Z,14.40
2017-12-20T22:56:16.125Z,17.00
2017-12-20T22:58:43.623Z,15.07
2017-12-20T23:01:11.119Z,16.67
2017-12-20T23:03:38.647Z,16.55
2017-12-20T23:06:06.153Z,16.45
2017-12-20T23:08:33.678Z,16.45
2017-12-20T23:11:01.159Z,15.73
2017-12-20T23:13:28.635Z,18.77
2017-12-20T23:15:56.172Z,16.48
2017-12-20T23:18:23.678Z,16.33
2017-12-20T23:20:51.966Z,16.02
2017-12-20T23:23:20.237Z,15.55
2017-12-20T23:25:47.763Z,13.88
2017-12-20T23:28:19.045Z,14.60
2017-12-20T23:30:46.546Z,15.48
2017-12-20T23:33:23.686Z,14.25
2017-12-20T23:35:51.938Z,13.70
2017-12-20T23:38:22.883Z,15.13
2017-12-20T23:40:50.388Z,15.70
2017-12-20T23:43:17.879Z,17.90
2017-12-20T23:45:45.421Z,15.10
2017-12-20T23:48:12.928Z,16.02
2017-12-20T23:50:40.412Z,18.08
2017-12-20T23:53:07.923Z,15.68
2017-12-20T23:55:35.431Z,16.77
2017-12-20T23:58:02.942Z,18.02
